Airfield :
LOGIN :

Register | Disclaimer

   EN    FR    IT 

 










Legend :    VFR   Marginal VFR   IFR   Intensive IFR   Very Intensive IFR
Visi :
Ceiling :
>= 8 km
>= 3000ft
5 to 8 km
1000 to 3000 ft
1500m to 5 km
500 to 1000 ft
800 to 1500m
200 to 500 ft
< 800m
< 200 ft
Symbols :   Thunderstorms  Fog  Heavy snow  Heavy precipitations  Wind > 20 kt
SIGMETs :     Misc.  Thunderstorms  Icing  Turbulence  Mountain Waves  Volcanic Ashes






- Airport Elevation : 238 ft
- IATA code : FAB


EGLF - Farnborough

CURRENT METAR :
  • 151220Z AUTO 22018KT 9999 NCD 09/04 Q0997

EXPIRED METARs :
  • 151150Z AUTO 23016KT 9999 NCD 08/04 Q0996
  • 151120Z AUTO 23015KT 9999 NCD 08/04 Q0996
  • 151050Z AUTO 22015G25KT 9999 NCD 08/04 Q0996
  • 151020Z AUTO 21014KT 9999 NCD 07/03 Q0996
  • 150950Z AUTO 22013KT 9999 NCD 06/03 Q0996

TAF TAF EGLF
Valid from the 15 at 12:00 until the 15 at 20:00 UTC


151054Z 1512/1520 22012KT 9999 FEW030
TEMPO 1515/1520 7000 SHRA BKN012
PROB30
TEMPO 1519/1520 4000 +SHRA
ATIS : +44 09063 800 400 (*282)



MET'MAP, your aeronautical weather chart ! - Copyright ORBIFLY December 2007 - Disclaimer

ORBIFLY MET'MAP TEAM :

Programming & Development : Alexandra Zaïnal
Concept & original design : Baudouin d'Aumeries
Assistance for programming : Marc-Olivier Méhu
Technical & hardware support : Manuel Goepfert

Contact : metmap@orbifly.com




SOURCES & CREDITS :

   NOAA